Flight Track Log - Related Links

Times and Time Zones

All times are in EDT time to prevent confusion due to time zone crossing. See the EJA930 flight status page for this flight to view local times or setup timezone preferences in your user account.

Time Position Orientation Groundspeed Altitude Reporting Facility
EDT Latitude Longitude Course Direction KTS MPH feet Rate Location/Type
Thu 15:14:32 40.0039 -82.9131 274° West 158 182 1,500  Level Indianapolis Center
Thu 15:15:13 40.0069 -82.9675 274° West 222 255 4,200 3,495 Climbing Indianapolis Center
Thu 15:16:15 40.0125 -83.0608 274° West 255 293 7,500 2,829 Climbing Indianapolis Center
Thu 15:17:16 40.0183 -83.1639 274° West 280 322 10,000 2,098 Climbing Indianapolis Center
Thu 15:18:18 40.0233 -83.2906 273° West 348 400 11,800 1,902 Climbing Indianapolis Center
Thu 15:19:19 40.0628 -83.4122 293° West 369 425 13,900 1,854 Climbing Indianapolis Center
Thu 15:20:21 40.1075 -83.5369 295° West 379 436 15,600 1,659 Climbing Indianapolis Center
Thu 15:21:22 40.1547 -83.6672 295° West 393 452 17,300 1,525 Climbing Indianapolis Center
Thu 15:22:23 40.2022 -83.7994 295° West 399 459 18,700 1,366 Climbing Indianapolis Center
Thu 15:23:25 40.2597 -83.9606 295° West 416 479 20,100 1,024 Climbing Indianapolis Center
Thu 15:24:26 40.3194 -84.0953 300° West 422 486 20,800 780 Climbing Indianapolis Center
Thu 15:25:28 40.3967 -84.2181 310° West 433 498 21,700 585 Climbing Indianapolis Center
Thu 15:26:29 40.4739 -84.3436 309° West 436 502 22,000 146 Climbing Indianapolis Center
Thu 15:27:31 40.5544 -84.4764 309° West 455 524 22,000  Level Indianapolis Center
Thu 15:28:32 40.6364 -84.6119 309° West 468 539 22,000  Level Indianapolis Center
Thu 15:29:34 40.7081 -84.7592 303° West 474 545 22,000  Level Indianapolis Center
Thu 15:30:24 40.7675 -84.8908 301° West 479 551 22,000  Level Chicago Center
Thu 15:31:26 40.8378 -85.0417 302° West 482 555 22,000  Level Chicago Center
Thu 15:32:28 40.9067 -85.1942 301° West 482 555 22,000  Level Chicago Center
Thu 15:33:29 40.9767 -85.3475 301° West 484 557 22,000  Level Chicago Center
Thu 15:34:31 41.0458 -85.5019 301° West 484 557 22,000  Level Chicago Center
Thu 15:35:32 41.1158 -85.6558 301° West 485 558 22,000  Level Chicago Center
Thu 15:36:34 41.1833 -85.8097 300° West 483 556 22,000 -390 Level Chicago Center
Thu 15:37:35 41.2633 -85.9911 300° West 475 547 21,200 -878 Descending Chicago Center
Thu 15:38:37 41.3086 -86.1328 293° West 411 473 20,200 -976 Descending Chicago Center
Thu 15:39:38 41.3406 -86.2647 288° West 387 445 19,200 -976 Descending Chicago Center
Thu 15:40:40 41.3744 -86.4017 288° West 387 445 18,200 -927 Descending Chicago Center
Thu 15:41:41 41.4100 -86.5478 288° West 406 467 17,300 -1,024 Descending Chicago Center
Thu 15:42:43 41.4492 -86.6989 289° West 426 490 16,100 -1,073 Descending Chicago Center
Thu 15:43:44 41.4842 -86.8428 288° West 421 484 15,100 -1,122 Descending Chicago Center
Thu 15:44:46 41.5261 -87.0158 288° West 414 476 13,800 -1,171 Descending Chicago Center
Thu 15:45:47 41.5606 -87.1542 288° West 399 459 12,700 -878 Descending Chicago Center
Thu 15:46:49 41.5950 -87.2728 291° West 351 404 12,000 -341 Descending Chicago Center
Thu 15:47:50 41.6589 -87.3717 311° West 353 406 12,000 -537 Level Chicago Center
Thu 15:48:52 41.7100 -87.4578 309° West 305 351 10,900 -1,171 Descending Chicago Center
Thu 15:49:53 41.7631 -87.5419 310° West 300 345 9,600 -1,317 Descending Chicago Center
Thu 15:50:55 41.8208 -87.6389 309° West 281 323 8,200 -1,171 Descending Chicago Center
Thu 15:51:56 41.8714 -87.6906 323° Northwest 257 296 7,200 -585 Descending Chicago Center
Thu 15:52:58 41.9367 -87.6922 359° North 239 275 7,000 -98 Descending Chicago Center
Thu 15:53:59 42.0036 -87.6925 360° North 243 280 7,000 -488 Level Chicago Center
Thu 15:55:01 42.0569 -87.6911 North 202 232 6,000 -1,073 Descending Chicago Center
Thu 15:56:02 42.1114 -87.6936 358° North 198 228 4,800 -1,122 Descending Chicago Center
Thu 15:57:04 42.1231 -87.7589 284° West 179 206 3,700 -968 Descending Chicago Center
Thu 15:58:06 42.0850 -87.8011 219° Southwest 179 206 2,800 -829 Descending Chicago Center
Thu 15:59:07 42.0494 -87.8397 219° Southwest 172 198 2,000 -780 Descending Chicago Center
Thu 16:00:09 42.0192 -87.8736 220° Southwest 158 182 1,200 -774 Descending Chicago Center
Thu 16:02:00 41.9817 -87.9067 225° Southwest  Level Estimated

Login

Don't have an account? Register now (free) for customized features, flight alerts, and more!